Hubbell, Michigan
Current Conditions -  °F | °C
As of 3:53 PM on Saturday 20 Dec 2014 (Local Time) from KCMX Reporting Station
Overcast Overcast  
Wind Chill: -8°   Ceiling: 2200
Heat Index: -3°   Visibility: 10mi
Dew Point: -6°   Wind: 7mph
Humidity: 84%   Direction: 170°S
Pressure: 30.14"   Gusts: NA
Location:  47.17°N, 88.43°W
Report Text: KCMX 202053Z AUTO 17006KT 10SM OVC022 M03/M06 A3014 RMK AO2 SLP225 T10331056 55007 $
Loading
Personal Weather Stations






























Interactive Weather Map New forecast layout! Learn more

10-Day Weather Forecast

Advertisements
Track Severe Weather on mobile